createdAt,value
2023-04-16T00:00:13.899Z,97.9794
2023-04-16T00:01:14.507Z,98.0285
2023-04-16T00:02:15.161Z,98.0437
2023-04-16T00:03:15.956Z,98.0512
2023-04-16T00:04:17.101Z,98.0664
2023-04-16T00:05:18.113Z,98.0678
2023-04-16T00:06:18.687Z,98.0259
2023-04-16T00:07:19.257Z,97.9727
2023-04-16T00:08:19.885Z,97.9126
2023-04-16T00:09:20.465Z,97.8839
2023-04-16T00:10:20.962Z,97.8512
2023-04-16T00:11:21.573Z,97.8714
2023-04-16T00:12:22.165Z,97.8442
2023-04-16T00:13:22.753Z,97.8048
2023-04-16T00:14:23.278Z,97.7990
2023-04-16T00:15:23.807Z,97.8289
2023-04-16T00:16:24.536Z,97.8555
2023-04-16T00:17:25.131Z,97.8929
2023-04-16T00:18:25.703Z,97.9250
2023-04-16T00:19:26.231Z,97.9002
2023-04-16T00:20:26.835Z,97.8801
2023-04-16T00:21:27.416Z,97.8311
2023-04-16T00:22:28.016Z,97.7871
2023-04-16T00:23:28.580Z,97.7256
2023-04-16T00:24:29.252Z,97.7078
2023-04-16T00:25:29.869Z,97.7092
2023-04-16T00:26:30.469Z,97.6916
2023-04-16T00:27:31.060Z,97.6829
2023-04-16T00:28:31.632Z,97.6855
2023-04-16T00:29:32.229Z,97.6844
2023-04-16T00:30:32.750Z,97.7034
2023-04-16T00:31:33.232Z,97.7290
2023-04-16T00:32:33.833Z,97.7849
2023-04-16T00:33:34.392Z,97.8274
2023-04-16T00:34:34.916Z,97.8285
2023-04-16T00:35:35.470Z,97.8560
2023-04-16T00:36:35.965Z,97.8858
2023-04-16T00:37:36.573Z,97.9024
2023-04-16T00:38:37.077Z,97.8998
2023-04-16T00:39:37.673Z,97.9352
2023-04-16T00:40:38.275Z,97.9620
2023-04-16T00:41:38.782Z,97.9885
2023-04-16T00:42:39.424Z,98.0111
2023-04-16T00:43:40.232Z,97.9933
2023-04-16T00:44:40.805Z,98.0266
2023-04-16T00:45:41.350Z,98.0489
2023-04-16T00:46:41.981Z,98.0937
2023-04-16T00:47:42.668Z,98.1259
2023-04-16T00:48:43.266Z,98.1360
2023-04-16T00:49:43.827Z,98.1443
2023-04-16T00:50:44.392Z,98.1540
2023-04-16T00:51:44.886Z,98.1651
2023-04-16T00:52:45.508Z,98.1866
2023-04-16T00:53:46.060Z,98.2234
2023-04-16T00:54:46.604Z,98.2143
2023-04-16T00:55:47.167Z,98.1995
2023-04-16T00:56:47.804Z,98.1792
2023-04-16T00:57:48.345Z,98.1623
2023-04-16T00:58:48.965Z,98.1585
2023-04-16T00:59:49.556Z,98.1330
2023-04-16T01:00:50.117Z,98.1545
2023-04-16T01:01:50.969Z,98.1910
2023-04-16T01:02:51.815Z,98.2248
2023-04-16T01:03:52.713Z,98.2386
2023-04-16T01:04:53.597Z,98.2055
2023-04-16T01:05:54.147Z,98.1730
2023-04-16T01:06:54.694Z,98.1958
2023-04-16T01:07:55.308Z,98.2359
2023-04-16T01:08:55.853Z,98.2230
2023-04-16T01:09:56.460Z,98.2317
2023-04-16T01:10:56.998Z,98.2655
2023-04-16T01:11:57.601Z,98.2625
2023-04-16T01:12:58.266Z,98.2538
2023-04-16T01:13:58.815Z,98.2119
2023-04-16T01:14:59.351Z,98.2319
2023-04-16T01:16:00.018Z,98.2336
2023-04-16T01:17:00.635Z,98.2336
2023-04-16T01:18:01.249Z,98.1988
2023-04-16T01:19:01.836Z,98.1981
2023-04-16T01:20:02.422Z,98.1669
2023-04-16T01:21:03.041Z,98.1624
2023-04-16T01:22:03.573Z,98.1578
2023-04-16T01:23:04.161Z,98.1427
2023-04-16T01:24:04.705Z,98.1669
2023-04-16T01:25:05.288Z,98.1809
2023-04-16T01:26:05.845Z,98.1593
2023-04-16T01:27:06.420Z,98.1424
2023-04-16T01:28:06.973Z,98.1228
2023-04-16T01:29:07.832Z,98.1414
2023-04-16T01:30:08.574Z,98.1544
2023-04-16T01:31:09.132Z,98.1306
2023-04-16T01:32:09.699Z,98.0467
2023-04-16T01:33:10.275Z,98.0475
2023-04-16T01:34:10.822Z,98.0247
2023-04-16T01:35:11.335Z,98.0163
2023-04-16T01:36:11.939Z,98.0201
2023-04-16T01:37:12.489Z,98.0114
2023-04-16T01:38:13.096Z,98.0080
2023-04-16T01:39:13.668Z,98.0102
2023-04-16T01:40:14.222Z,97.9751
2023-04-16T01:41:14.714Z,97.9412
2023-04-16T01:42:15.258Z,97.9824
2023-04-16T01:43:15.881Z,98.0325
2023-04-16T01:44:16.432Z,98.0578
2023-04-16T01:45:16.973Z,98.0747
2023-04-16T01:46:17.520Z,98.0971
2023-04-16T01:47:18.076Z,98.0937
2023-04-16T01:48:18.645Z,98.1326
2023-04-16T01:49:19.197Z,98.1726
2023-04-16T01:50:19.747Z,98.2053
2023-04-16T01:51:20.353Z,98.2455
2023-04-16T01:52:20.901Z,98.2865
2023-04-16T01:53:21.518Z,98.3000
2023-04-16T01:54:22.087Z,98.2950
2023-04-16T01:55:22.629Z,98.3296
2023-04-16T01:56:23.220Z,98.3734
2023-04-16T01:57:23.768Z,98.3949
2023-04-16T01:58:24.427Z,98.4163
2023-04-16T01:59:25.014Z,98.4471
2023-04-16T02:00:25.582Z,98.4636
2023-04-16T02:01:26.176Z,98.4823
2023-04-16T02:02:26.962Z,98.4896
2023-04-16T02:03:27.739Z,98.5128
2023-04-16T02:04:28.398Z,98.5156
2023-04-16T02:05:28.955Z,98.5429
2023-04-16T02:06:29.607Z,98.5777
2023-04-16T02:07:30.186Z,98.6202
2023-04-16T02:08:30.872Z,98.6249
2023-04-16T02:09:31.477Z,98.6003
2023-04-16T02:10:32.086Z,98.5390
2023-04-16T02:11:32.716Z,98.5138
2023-04-16T02:12:33.332Z,98.5034
2023-04-16T02:13:33.981Z,98.4770
2023-04-16T02:14:34.561Z,98.5000
2023-04-16T02:15:35.149Z,98.5100
2023-04-16T02:16:35.974Z,98.5299
2023-04-16T02:17:36.648Z,98.5038
2023-04-16T02:18:37.262Z,98.4810
2023-04-16T02:19:37.883Z,98.4371
2023-04-16T02:20:38.542Z,98.4312
2023-04-16T02:21:39.228Z,98.4162
2023-04-16T02:22:39.791Z,98.4056
2023-04-16T02:23:40.497Z,98.3974
2023-04-16T02:24:41.214Z,98.4159
2023-04-16T02:25:41.834Z,98.4424
2023-04-16T02:26:42.444Z,98.4586
2023-04-16T02:27:43.177Z,98.4651
2023-04-16T02:28:43.853Z,98.4776
2023-04-16T02:29:44.485Z,98.4946
2023-04-16T02:30:45.120Z,98.4832
2023-04-16T02:31:45.811Z,98.4969
2023-04-16T02:32:46.550Z,98.5132
2023-04-16T02:33:47.096Z,98.5455
2023-04-16T02:34:47.874Z,98.5432
2023-04-16T02:35:48.443Z,98.5637
2023-04-16T02:36:49.153Z,98.6037
2023-04-16T02:37:49.753Z,98.6251
2023-04-16T02:38:50.427Z,98.6595
2023-04-16T02:39:51.138Z,98.6877
2023-04-16T02:40:51.766Z,98.7234
2023-04-16T02:41:52.374Z,98.7293
2023-04-16T02:42:52.939Z,98.7247
2023-04-16T02:43:53.509Z,98.7163
2023-04-16T02:44:54.220Z,98.6883
2023-04-16T02:45:55.344Z,98.6731
2023-04-16T02:46:55.969Z,98.6854
2023-04-16T02:47:56.626Z,98.7005
2023-04-16T02:48:57.337Z,98.6972
2023-04-16T02:49:57.953Z,98.6888
2023-04-16T02:50:58.672Z,98.6863
2023-04-16T02:51:59.320Z,98.6521
2023-04-16T02:52:59.936Z,98.6461
2023-04-16T02:54:00.596Z,98.6252
2023-04-16T02:55:01.205Z,98.5984
2023-04-16T02:56:01.886Z,98.5538
2023-04-16T02:57:02.573Z,98.5279
2023-04-16T02:58:03.178Z,98.5181
2023-04-16T02:59:03.842Z,98.5259
2023-04-16T03:00:04.470Z,98.5426
2023-04-16T03:01:05.161Z,98.5716
2023-04-16T03:02:05.798Z,98.6088
2023-04-16T03:03:06.398Z,98.5891
2023-04-16T03:04:07.073Z,98.5968
2023-04-16T03:05:07.712Z,98.5998
2023-04-16T03:06:08.399Z,98.6392
2023-04-16T03:07:09.005Z,98.6822
2023-04-16T03:08:09.604Z,98.7196
2023-04-16T03:09:10.923Z,98.7305
2023-04-16T03:10:11.898Z,98.7269
2023-04-16T03:11:12.523Z,98.7395
2023-04-16T03:12:13.134Z,98.7561
2023-04-16T03:13:13.755Z,98.7789
2023-04-16T03:14:14.367Z,98.7961
2023-04-16T03:15:15.009Z,98.8025
2023-04-16T03:16:15.794Z,98.8129
2023-04-16T03:17:16.570Z,98.8530
2023-04-16T03:18:17.193Z,98.8900
2023-04-16T03:19:17.832Z,98.9219
2023-04-16T03:20:18.464Z,98.9339
2023-04-16T03:21:19.046Z,98.9221
2023-04-16T03:22:20.157Z,98.9368
2023-04-16T03:23:21.022Z,98.9364
2023-04-16T03:24:21.625Z,98.9481
2023-04-16T03:25:22.292Z,98.9718
2023-04-16T03:26:22.874Z,98.9802
2023-04-16T03:27:23.549Z,99.0013
2023-04-16T03:28:24.162Z,99.0090
2023-04-16T03:29:24.777Z,99.0196
2023-04-16T03:30:25.411Z,99.0149
2023-04-16T03:31:26.089Z,99.0169
2023-04-16T03:32:26.772Z,99.0209
2023-04-16T03:33:27.418Z,98.9998
2023-04-16T03:34:28.121Z,98.9808
2023-04-16T03:35:28.758Z,98.9834
2023-04-16T03:36:29.402Z,99.0061
2023-04-16T03:37:29.998Z,99.0419
2023-04-16T03:38:30.584Z,99.0438
2023-04-16T03:39:31.217Z,99.0301
2023-04-16T03:40:31.840Z,99.0176
2023-04-16T03:41:32.487Z,98.9883
2023-04-16T03:42:33.070Z,98.9404
2023-04-16T03:43:33.682Z,98.9038
2023-04-16T03:44:34.267Z,98.8623
2023-04-16T03:45:34.864Z,98.8411
2023-04-16T03:46:35.481Z,98.8248
2023-04-16T03:47:36.147Z,98.8221
2023-04-16T03:48:36.774Z,98.8137
2023-04-16T03:49:37.488Z,98.8145
2023-04-16T03:50:38.116Z,98.7820
2023-04-16T03:51:38.696Z,98.7459
2023-04-16T03:52:39.323Z,98.7449
2023-04-16T03:53:39.959Z,98.7655
2023-04-16T03:54:40.626Z,98.8052
2023-04-16T03:55:41.251Z,98.8545
2023-04-16T03:56:41.852Z,98.8822
2023-04-16T03:57:42.481Z,98.9253
2023-04-16T03:58:43.118Z,98.9557
2023-04-16T03:59:43.780Z,98.9894
2023-04-16T04:00:44.431Z,99.0264
2023-04-16T04:01:45.058Z,99.0605
2023-04-16T04:02:45.812Z,99.0846
2023-04-16T04:03:46.740Z,99.1189
2023-04-16T04:04:47.838Z,99.1448
2023-04-16T04:05:48.528Z,99.1350
2023-04-16T04:06:49.168Z,99.1270
2023-04-16T04:07:49.747Z,99.1028
2023-04-16T04:08:50.366Z,99.0787
2023-04-16T04:09:51.045Z,99.0659
2023-04-16T04:10:51.644Z,99.0823
2023-04-16T04:11:52.331Z,99.1083
2023-04-16T04:12:52.942Z,99.1058
2023-04-16T04:13:53.587Z,99.0870
2023-04-16T04:14:54.268Z,99.0791
2023-04-16T04:15:54.907Z,99.0916
2023-04-16T04:16:55.567Z,99.1105
2023-04-16T04:17:56.249Z,99.1363
2023-04-16T04:18:56.893Z,99.1572
2023-04-16T04:20:01.251Z,99.1674
2023-04-16T04:21:00.153Z,99.1983
2023-04-16T04:22:00.785Z,99.2339
2023-04-16T04:23:01.368Z,99.2581
2023-04-16T04:24:02.051Z,99.2856
2023-04-16T04:25:02.886Z,99.3005
2023-04-16T04:26:03.527Z,99.2847
2023-04-16T04:27:04.184Z,99.2811
2023-04-16T04:28:04.898Z,99.2922
2023-04-16T04:29:05.567Z,99.3131
2023-04-16T04:30:06.218Z,99.3288
2023-04-16T04:31:06.845Z,99.3495
2023-04-16T04:32:07.596Z,99.3566
2023-04-16T04:33:08.546Z,99.3709
2023-04-16T04:34:09.185Z,99.3802
2023-04-16T04:35:09.856Z,99.3795
2023-04-16T04:36:10.519Z,99.3931
2023-04-16T04:37:11.185Z,99.4054
2023-04-16T04:38:13.180Z,99.3998
2023-04-16T04:39:12.859Z,99.4086
2023-04-16T04:40:13.556Z,99.4151
2023-04-16T04:41:14.244Z,99.4217
2023-04-16T04:42:14.839Z,99.4106
2023-04-16T04:43:15.493Z,99.3912
2023-04-16T04:44:16.172Z,99.3939
2023-04-16T04:45:16.857Z,99.3714
2023-04-16T04:46:17.524Z,99.3719
2023-04-16T04:47:18.175Z,99.3721
2023-04-16T04:48:18.893Z,99.3577
2023-04-16T04:49:19.498Z,99.3477
2023-04-16T04:50:20.190Z,99.3671
2023-04-16T04:51:20.880Z,99.3705
2023-04-16T04:52:21.473Z,99.3729
2023-04-16T04:53:22.101Z,99.3843
2023-04-16T04:54:22.678Z,99.4020
2023-04-16T04:55:23.453Z,99.4123
2023-04-16T04:56:24.105Z,99.4288
2023-04-16T04:57:24.837Z,99.4377
2023-04-16T04:58:25.413Z,99.4189
2023-04-16T04:59:26.088Z,99.4098
2023-04-16T05:00:26.744Z,99.4201
2023-04-16T05:01:27.479Z,99.4206
2023-04-16T05:02:28.175Z,99.4239
2023-04-16T05:03:28.889Z,99.4409
2023-04-16T05:04:29.546Z,99.4557
2023-04-16T05:05:30.180Z,99.4591
2023-04-16T05:06:30.946Z,99.4623
2023-04-16T05:07:31.558Z,99.4515
2023-04-16T05:08:32.186Z,99.4633
2023-04-16T05:09:32.824Z,99.4941
2023-04-16T05:10:33.420Z,99.4999
2023-04-16T05:11:34.079Z,99.5202
2023-04-16T05:12:34.671Z,99.5311
2023-04-16T05:13:35.315Z,99.5341
2023-04-16T05:14:35.964Z,99.5414
2023-04-16T05:15:36.567Z,99.5625
2023-04-16T05:16:37.344Z,99.5760
2023-04-16T05:17:37.958Z,99.5690
2023-04-16T05:18:38.596Z,99.5662
2023-04-16T05:19:39.197Z,99.5526
2023-04-16T05:20:39.836Z,99.5612
2023-04-16T05:21:40.519Z,99.5756
2023-04-16T05:22:41.169Z,99.5583
2023-04-16T05:23:41.817Z,99.5512
2023-04-16T05:24:42.472Z,99.5491
2023-04-16T05:25:43.129Z,99.5615
2023-04-16T05:26:43.833Z,99.5643
2023-04-16T05:27:44.460Z,99.5674
2023-04-16T05:28:45.064Z,99.5817
2023-04-16T05:29:45.787Z,99.5753
2023-04-16T05:30:46.410Z,99.5813
2023-04-16T05:31:47.172Z,99.5830
2023-04-16T05:32:47.824Z,99.5825
2023-04-16T05:33:48.394Z,99.5838
2023-04-16T05:34:49.073Z,99.5883
2023-04-16T05:35:49.719Z,99.5668
2023-04-16T05:36:50.439Z,99.5717
2023-04-16T05:37:51.041Z,99.5695
2023-04-16T05:38:51.743Z,99.5611
2023-04-16T05:39:52.580Z,99.5677
2023-04-16T05:40:53.238Z,99.5652
2023-04-16T05:41:53.852Z,99.5597
2023-04-16T05:42:54.639Z,99.5627
2023-04-16T05:43:55.332Z,99.5611
2023-04-16T05:44:56.038Z,99.5412
2023-04-16T05:45:56.837Z,99.5199
2023-04-16T05:46:57.538Z,99.5200
2023-04-16T05:47:58.180Z,99.5000
2023-04-16T05:48:58.832Z,99.4900
2023-04-16T05:49:59.411Z,99.5020
2023-04-16T05:51:00.053Z,99.5121
2023-04-16T05:52:00.658Z,99.5187
2023-04-16T05:53:01.345Z,99.4909
2023-04-16T05:54:02.042Z,99.4787
2023-04-16T05:55:02.646Z,99.4624
2023-04-16T05:56:03.328Z,99.4428
2023-04-16T05:57:03.949Z,99.4260
2023-04-16T05:58:04.538Z,99.4474
2023-04-16T05:59:05.237Z,99.4188
2023-04-16T06:00:05.870Z,99.4012
2023-04-16T06:01:06.477Z,99.3869
2023-04-16T06:02:07.198Z,99.3917
2023-04-16T06:03:08.030Z,99.4094
2023-04-16T06:04:08.996Z,99.4404
2023-04-16T06:05:09.702Z,99.4460
2023-04-16T06:06:10.296Z,99.4648
2023-04-16T06:07:10.933Z,99.4435
2023-04-16T06:08:11.607Z,99.4243
2023-04-16T06:09:12.317Z,99.4127
2023-04-16T06:10:12.970Z,99.4095
2023-04-16T06:11:13.587Z,99.3823
2023-04-16T06:12:14.270Z,99.3450
2023-04-16T06:13:14.851Z,99.3253
2023-04-16T06:14:15.500Z,99.3086
2023-04-16T06:15:16.194Z,99.2936
2023-04-16T06:16:16.883Z,99.2795
2023-04-16T06:17:17.618Z,99.2908
2023-04-16T06:18:18.250Z,99.2959
2023-04-16T06:19:18.986Z,99.3313
2023-04-16T06:20:19.621Z,99.3313
2023-04-16T06:21:20.232Z,99.3015
2023-04-16T06:22:20.918Z,99.2877
2023-04-16T06:23:21.564Z,99.2421
2023-04-16T06:24:22.172Z,99.2036
2023-04-16T06:25:22.863Z,99.1659
2023-04-16T06:26:23.482Z,99.1486
2023-04-16T06:27:24.203Z,99.1233
2023-04-16T06:28:24.847Z,99.1527
2023-04-16T06:29:33.717Z,99.1114
2023-04-16T06:30:26.891Z,99.0498
2023-04-16T06:31:27.596Z,98.9855
2023-04-16T06:32:28.479Z,98.9497
2023-04-16T06:33:29.234Z,98.9132
2023-04-16T06:34:29.887Z,98.9002
2023-04-16T06:35:30.518Z,98.8923
2023-04-16T06:36:31.213Z,98.8950
2023-04-16T06:37:31.863Z,98.8714
2023-04-16T06:38:32.493Z,98.8529
2023-04-16T06:39:33.432Z,98.7904
2023-04-16T06:40:34.088Z,98.8214
2023-04-16T06:41:34.750Z,98.8245
2023-04-16T06:42:35.418Z,98.8555
2023-04-16T06:43:36.053Z,98.8467
2023-04-16T06:44:36.644Z,98.8284
2023-04-16T06:45:37.270Z,98.8379
2023-04-16T06:46:37.994Z,98.8362
2023-04-16T06:47:38.759Z,98.8787
2023-04-16T06:48:39.384Z,98.9187
2023-04-16T06:49:39.977Z,98.9548
2023-04-16T06:50:40.600Z,98.9832
2023-04-16T06:51:41.207Z,99.0187
2023-04-16T06:52:41.952Z,99.0341
2023-04-16T06:53:42.584Z,99.0348
2023-04-16T06:54:43.345Z,99.0611
2023-04-16T06:55:43.993Z,99.0806
2023-04-16T06:56:44.750Z,99.1239
2023-04-16T06:57:45.475Z,99.1442
2023-04-16T06:58:46.162Z,99.1503
2023-04-16T06:59:46.834Z,99.2031
2023-04-16T07:00:47.693Z,99.2151
2023-04-16T07:01:48.534Z,99.2517
2023-04-16T07:02:49.391Z,99.2711
2023-04-16T07:03:50.322Z,99.2540
2023-04-16T07:04:51.513Z,99.2232
2023-04-16T07:05:52.174Z,99.2211
2023-04-16T07:06:52.899Z,99.2103
2023-04-16T07:07:53.635Z,99.2313
2023-04-16T07:08:54.384Z,99.2203
2023-04-16T07:09:55.087Z,99.1868
2023-04-16T07:10:55.823Z,99.1623
2023-04-16T07:11:56.609Z,99.1671
2023-04-16T07:12:57.399Z,99.2017
2023-04-16T07:13:58.088Z,99.1819
2023-04-16T07:14:58.761Z,99.1988
2023-04-16T07:15:59.461Z,99.1897
2023-04-16T07:17:00.129Z,99.1801
2023-04-16T07:18:00.855Z,99.1281
2023-04-16T07:19:01.576Z,99.1393
2023-04-16T07:20:02.210Z,99.1099
2023-04-16T07:21:02.897Z,99.1228
2023-04-16T07:22:03.835Z,99.1168
2023-04-16T07:23:04.539Z,99.1097
2023-04-16T07:24:05.256Z,99.1234
2023-04-16T07:25:05.865Z,99.0797
2023-04-16T07:26:06.473Z,99.0667
2023-04-16T07:27:07.135Z,99.0466
2023-04-16T07:28:07.827Z,99.0277
2023-04-16T07:29:08.800Z,98.9931
2023-04-16T07:30:09.791Z,98.9426
2023-04-16T07:31:10.452Z,98.9426
2023-04-16T07:32:12.445Z,98.9769
2023-04-16T07:33:12.153Z,99.0081
2023-04-16T07:34:12.933Z,99.0236
2023-04-16T07:35:13.593Z,99.0056
2023-04-16T07:36:14.259Z,98.9578
2023-04-16T07:37:14.927Z,98.9395
2023-04-16T07:38:15.714Z,98.9169
2023-04-16T07:39:16.438Z,98.8718
2023-04-16T07:40:17.175Z,98.8249
2023-04-16T07:41:17.872Z,98.7417
2023-04-16T07:42:18.550Z,98.7145
2023-04-16T07:43:19.357Z,98.7053
2023-04-16T07:44:20.088Z,98.7521
2023-04-16T07:45:20.774Z,98.8032
2023-04-16T07:46:21.853Z,98.8065
2023-04-16T07:47:22.885Z,98.7334
2023-04-16T07:48:23.674Z,98.7344
2023-04-16T07:49:24.390Z,98.7336
2023-04-16T07:50:25.083Z,98.6714
2023-04-16T07:51:25.799Z,98.5832
2023-04-16T07:52:26.418Z,98.5747
2023-04-16T07:53:27.184Z,98.5494
2023-04-16T07:54:29.084Z,98.5215
2023-04-16T07:55:30.063Z,98.4806
2023-04-16T07:56:30.797Z,98.4823
2023-04-16T07:57:31.492Z,98.4848
2023-04-16T07:58:32.283Z,98.4738
2023-04-16T07:59:32.996Z,98.5195
2023-04-16T08:00:33.707Z,98.5532
2023-04-16T08:01:34.403Z,98.6026
2023-04-16T08:02:35.118Z,98.6471
2023-04-16T08:03:36.348Z,98.6299
2023-04-16T08:04:37.256Z,98.6376
2023-04-16T08:05:38.280Z,98.6765
2023-04-16T08:06:39.039Z,98.7264
2023-04-16T08:07:39.696Z,98.7340
2023-04-16T08:08:40.349Z,98.6441
2023-04-16T08:09:41.115Z,98.5657
2023-04-16T08:10:41.719Z,98.5336
2023-04-16T08:11:42.366Z,98.5420
2023-04-16T08:12:42.994Z,98.4744
2023-04-16T08:13:43.650Z,98.5225
2023-04-16T08:14:44.323Z,98.5818
2023-04-16T08:15:45.136Z,98.6363
2023-04-16T08:16:45.944Z,98.6817
2023-04-16T08:17:46.636Z,98.7098
2023-04-16T08:18:47.369Z,98.7543
2023-04-16T08:19:48.095Z,98.7253
2023-04-16T08:20:48.758Z,98.6749
2023-04-16T08:21:49.630Z,98.6449
2023-04-16T08:22:50.439Z,98.6577
2023-04-16T08:23:51.085Z,98.6648
2023-04-16T08:24:51.763Z,98.6830
2023-04-16T08:25:53.112Z,98.6873
2023-04-16T08:26:53.857Z,98.7001
2023-04-16T08:27:54.600Z,98.7359
2023-04-16T08:28:55.232Z,98.7784
2023-04-16T08:29:55.927Z,98.7923
2023-04-16T08:30:56.624Z,98.7776
2023-04-16T08:31:57.304Z,98.7437
2023-04-16T08:32:58.001Z,98.7052
2023-04-16T08:33:58.722Z,98.6926
2023-04-16T08:34:59.442Z,98.6112
2023-04-16T08:36:00.116Z,98.5065
2023-04-16T08:37:00.761Z,98.4845
2023-04-16T08:38:02.598Z,98.4515
2023-04-16T08:39:03.443Z,98.4476
2023-04-16T08:40:04.161Z,98.3618
2023-04-16T08:41:04.802Z,98.3475
2023-04-16T08:42:05.439Z,98.3829
2023-04-16T08:43:06.055Z,98.2960
2023-04-16T08:44:06.838Z,98.2412
2023-04-16T08:45:07.444Z,98.2461
2023-04-16T08:46:08.160Z,98.2540
2023-04-16T08:47:08.882Z,98.3122
2023-04-16T08:48:09.807Z,98.3395
2023-04-16T08:49:10.700Z,98.2385
2023-04-16T08:50:11.681Z,98.0722
2023-04-16T08:51:12.336Z,98.0163
2023-04-16T08:52:13.047Z,97.9007
2023-04-16T08:53:13.699Z,97.8862
2023-04-16T08:54:14.378Z,97.7554
2023-04-16T08:55:15.090Z,97.8260
2023-04-16T08:56:15.813Z,97.7440
2023-04-16T08:57:16.484Z,97.7365
2023-04-16T08:58:17.145Z,97.6313
2023-04-16T08:59:17.798Z,97.5857
2023-04-16T09:00:18.497Z,97.6042
2023-04-16T09:01:19.347Z,97.6918
2023-04-16T09:02:20.131Z,97.7419
2023-04-16T09:03:21.197Z,97.7612
2023-04-16T09:04:22.018Z,97.7661
2023-04-16T09:05:22.789Z,97.7990
2023-04-16T09:06:23.443Z,97.8012
2023-04-16T09:07:24.266Z,97.8358
2023-04-16T09:08:24.967Z,97.6955
2023-04-16T09:09:25.654Z,97.6979
2023-04-16T09:10:26.576Z,97.7363
2023-04-16T09:11:27.194Z,97.8371
2023-04-16T09:12:27.877Z,97.8215
2023-04-16T09:13:28.515Z,97.7180
2023-04-16T09:14:29.317Z,97.6922
2023-04-16T09:15:29.970Z,97.7058
2023-04-16T09:16:30.784Z,97.8438
2023-04-16T09:17:31.450Z,97.8334
2023-04-16T09:18:32.063Z,97.8734
2023-04-16T09:19:32.728Z,97.9937
2023-04-16T09:20:33.351Z,97.9747
2023-04-16T09:21:33.987Z,97.9700
2023-04-16T09:22:34.641Z,97.9976
2023-04-16T09:23:35.330Z,98.1051
2023-04-16T09:24:35.941Z,98.1791
2023-04-16T09:25:36.926Z,98.1117
2023-04-16T09:26:37.562Z,98.1039
2023-04-16T09:27:38.256Z,98.0488
2023-04-16T09:28:38.904Z,97.9190
2023-04-16T09:29:39.600Z,97.7838
2023-04-16T09:30:40.313Z,97.6368
2023-04-16T09:31:40.994Z,97.6975
2023-04-16T09:32:41.798Z,97.7716
2023-04-16T09:33:42.450Z,97.8124
2023-04-16T09:34:43.236Z,97.8962
2023-04-16T09:35:43.956Z,97.9985
2023-04-16T09:36:44.628Z,98.0246
2023-04-16T09:37:45.284Z,97.9306
2023-04-16T09:38:45.986Z,97.7996
2023-04-16T09:39:46.646Z,97.5979
2023-04-16T09:40:47.401Z,97.5380
2023-04-16T09:41:48.224Z,97.5632
2023-04-16T09:42:49.222Z,97.6370
2023-04-16T09:43:49.823Z,97.6869
2023-04-16T09:44:50.454Z,97.7326
2023-04-16T09:45:51.260Z,97.6766
2023-04-16T09:46:51.965Z,97.6898
2023-04-16T09:47:52.739Z,97.6905
2023-04-16T09:48:53.414Z,97.6268
2023-04-16T09:49:54.923Z,97.6331
2023-04-16T09:50:55.580Z,97.7559
2023-04-16T09:51:56.275Z,97.8761
2023-04-16T09:52:56.926Z,97.8404
2023-04-16T09:53:57.614Z,97.8288
2023-04-16T09:54:58.278Z,97.8700
2023-04-16T09:55:59.062Z,97.8720
2023-04-16T09:56:59.795Z,97.9335
2023-04-16T09:58:00.503Z,97.8661
2023-04-16T09:59:01.177Z,97.8487
2023-04-16T10:00:01.816Z,97.8635
2023-04-16T10:01:02.592Z,97.8476
2023-04-16T10:02:14.600Z,97.8456
2023-04-16T10:03:04.794Z,97.9066
2023-04-16T10:04:05.655Z,97.9522
2023-04-16T10:05:06.499Z,97.9839
2023-04-16T10:06:07.171Z,97.9512
2023-04-16T10:07:07.858Z,97.9763
2023-04-16T10:08:08.546Z,98.0279
2023-04-16T10:09:09.452Z,98.0502
2023-04-16T10:10:10.510Z,98.0965
2023-04-16T10:11:11.206Z,98.0776
2023-04-16T10:12:12.063Z,98.0425
2023-04-16T10:13:12.863Z,98.1167
2023-04-16T10:14:13.617Z,98.1817
2023-04-16T10:15:14.387Z,98.1499
2023-04-16T10:16:15.181Z,98.1009
2023-04-16T10:17:15.846Z,98.0823
2023-04-16T10:18:16.521Z,98.0072
2023-04-16T10:19:17.121Z,97.8810
2023-04-16T10:20:17.792Z,97.8280
2023-04-16T10:21:18.538Z,97.7348
2023-04-16T10:22:19.168Z,97.6859
2023-04-16T10:23:19.743Z,97.7632
2023-04-16T10:24:20.359Z,97.7580
2023-04-16T10:25:21.016Z,97.7577
2023-04-16T10:26:21.677Z,97.6699
2023-04-16T10:27:22.326Z,97.7020
2023-04-16T10:28:23.114Z,97.7453
2023-04-16T10:29:23.797Z,97.7117
2023-04-16T10:30:24.519Z,97.7406
2023-04-16T10:31:25.233Z,97.7118
2023-04-16T10:32:26.180Z,97.6337
2023-04-16T10:33:26.894Z,97.6803
2023-04-16T10:34:27.545Z,97.7064
2023-04-16T10:35:28.225Z,97.7177
2023-04-16T10:36:28.999Z,97.6455
2023-04-16T10:37:29.625Z,97.6376
2023-04-16T10:38:30.339Z,97.5487
2023-04-16T10:39:30.992Z,97.4818
2023-04-16T10:40:31.640Z,97.4358
2023-04-16T10:41:32.363Z,97.4903
2023-04-16T10:42:33.063Z,97.5367
2023-04-16T10:43:33.753Z,97.3843
2023-04-16T10:44:34.370Z,97.3585
2023-04-16T10:45:35.233Z,97.3153
2023-04-16T10:46:35.992Z,97.1415
2023-04-16T10:47:36.664Z,97.1188
2023-04-16T10:48:48.660Z,97.1556
2023-04-16T10:49:38.712Z,97.0089
2023-04-16T10:50:39.587Z,97.0450
2023-04-16T10:51:40.370Z,96.9660
2023-04-16T10:52:41.074Z,97.1036
2023-04-16T10:53:41.732Z,97.2542
2023-04-16T10:54:42.398Z,97.1578
2023-04-16T10:55:42.998Z,97.0784
2023-04-16T10:56:43.689Z,97.1316
2023-04-16T10:57:44.378Z,97.1077
2023-04-16T10:58:45.019Z,97.3268
2023-04-16T10:59:45.663Z,97.4874
2023-04-16T11:00:46.340Z,97.5754
2023-04-16T11:01:47.041Z,97.5568
2023-04-16T11:02:47.833Z,97.4874
2023-04-16T11:03:48.617Z,97.3689
2023-04-16T11:04:50.007Z,97.2011
2023-04-16T11:05:50.842Z,97.2945
2023-04-16T11:06:51.532Z,97.2237
2023-04-16T11:07:52.506Z,97.1028
2023-04-16T11:08:54.915Z,96.8444
2023-04-16T11:09:53.814Z,96.9422
2023-04-16T11:10:54.487Z,97.2442
2023-04-16T11:11:55.181Z,97.1635
2023-04-16T11:12:55.857Z,97.0405
2023-04-16T11:13:56.530Z,97.0682
2023-04-16T11:14:57.198Z,97.2673
2023-04-16T11:15:57.861Z,97.4994
2023-04-16T11:16:58.499Z,97.4381
2023-04-16T11:17:59.176Z,97.1044
2023-04-16T11:18:59.810Z,96.8484
2023-04-16T11:20:00.545Z,96.8199
2023-04-16T11:21:01.275Z,96.4279
2023-04-16T11:22:01.898Z,96.4022
2023-04-16T11:23:02.579Z,96.4941
2023-04-16T11:24:03.133Z,96.0679
2023-04-16T11:25:03.778Z,96.0905
2023-04-16T11:26:04.426Z,96.2491
2023-04-16T11:27:05.176Z,96.1996
2023-04-16T11:28:05.828Z,96.4351
2023-04-16T11:29:06.516Z,96.4783
2023-04-16T11:30:07.174Z,96.4813
2023-04-16T11:31:07.861Z,96.5678
2023-04-16T11:32:08.545Z,96.7805
2023-04-16T11:33:09.245Z,96.7960
2023-04-16T11:34:09.900Z,96.7851
2023-04-16T11:35:10.547Z,96.8645
2023-04-16T11:36:11.139Z,97.1003
2023-04-16T11:37:11.885Z,97.3528
2023-04-16T11:38:12.555Z,97.5566
2023-04-16T11:39:13.229Z,97.5614
2023-04-16T11:40:14.020Z,97.2620
2023-04-16T11:41:14.680Z,97.1261
2023-04-16T11:42:15.436Z,97.1761
2023-04-16T11:43:16.179Z,97.2448
2023-04-16T11:44:16.829Z,97.2823
2023-04-16T11:45:17.902Z,97.3470
2023-04-16T11:46:27.398Z,97.3124
2023-04-16T11:47:20.271Z,97.3510
2023-04-16T11:48:21.031Z,97.4866
2023-04-16T11:49:21.740Z,97.6181
2023-04-16T11:50:22.757Z,97.7108
2023-04-16T11:51:23.810Z,97.7862
2023-04-16T11:52:24.991Z,97.7533
2023-04-16T11:53:25.752Z,97.7091
2023-04-16T11:54:26.455Z,97.7060
2023-04-16T11:55:27.178Z,97.6302
2023-04-16T11:56:27.850Z,97.6315
2023-04-16T11:57:28.549Z,97.6900
2023-04-16T11:58:29.263Z,97.6644
2023-04-16T11:59:29.970Z,97.7062
2023-04-16T12:00:30.665Z,97.8032
2023-04-16T12:01:31.408Z,97.8629
2023-04-16T12:02:32.313Z,97.9384
2023-04-16T12:03:33.348Z,97.9774
2023-04-16T12:04:34.204Z,97.9226
2023-04-16T12:05:34.954Z,97.8183
2023-04-16T12:06:35.695Z,97.6103
2023-04-16T12:07:36.494Z,97.4992
2023-04-16T12:08:37.272Z,97.3216
2023-04-16T12:09:40.569Z,97.2718
2023-04-16T12:10:39.048Z,97.1362
2023-04-16T12:11:39.747Z,97.0228
2023-04-16T12:12:40.480Z,96.9548
2023-04-16T12:13:41.218Z,96.7439